createdAt,value
2019-02-14T00:00:21.461Z,19.57
2019-02-14T00:02:52.226Z,13.28
2019-02-14T00:05:22.990Z,10.37
2019-02-14T00:07:53.760Z,15.90
2019-02-14T00:10:24.526Z,11.77
2019-02-14T00:12:55.298Z,12.13
2019-02-14T00:15:26.058Z,14.13
2019-02-14T00:17:56.818Z,13.13
2019-02-14T00:20:27.574Z,10.20
2019-02-14T00:22:58.339Z,12.77
2019-02-14T00:25:29.098Z,14.43
2019-02-14T00:27:59.888Z,11.50
2019-02-14T00:30:30.651Z,12.43
2019-02-14T00:33:01.453Z,11.53
2019-02-14T00:35:32.311Z,14.67
2019-02-14T00:38:03.087Z,14.43
2019-02-14T00:40:33.842Z,11.30
2019-02-14T00:43:04.604Z,10.60
2019-02-14T00:45:35.372Z,10.23
2019-02-14T00:48:06.137Z,9.30
2019-02-14T00:50:36.900Z,14.90
2019-02-14T00:53:07.670Z,10.97
2019-02-14T00:55:38.431Z,17.50
2019-02-14T00:58:09.197Z,11.57
2019-02-14T01:00:39.953Z,9.03
2019-02-14T01:03:10.719Z,13.07
2019-02-14T01:05:41.474Z,10.60
2019-02-14T01:08:12.248Z,11.77
2019-02-14T01:10:43.049Z,13.47
2019-02-14T01:13:13.821Z,9.63
2019-02-14T01:15:44.676Z,13.47
2019-02-14T01:18:15.461Z,15.03
2019-02-14T01:20:46.215Z,13.83
2019-02-14T01:23:16.978Z,12.00
2019-02-14T01:25:47.730Z,11.77
2019-02-14T01:28:18.495Z,13.33
2019-02-14T01:30:49.265Z,10.67
2019-02-14T01:33:20.034Z,12.63
2019-02-14T01:35:50.785Z,10.43
2019-02-14T01:38:21.553Z,12.00
2019-02-14T01:40:52.317Z,13.57
2019-02-14T01:43:23.086Z,12.93
2019-02-14T01:45:53.853Z,12.60
2019-02-14T01:48:24.640Z,12.57
2019-02-14T01:50:55.389Z,18.07
2019-02-14T01:53:26.160Z,11.93
2019-02-14T01:55:56.922Z,11.17
2019-02-14T01:58:27.698Z,12.30
2019-02-14T02:00:58.445Z,13.90
2019-02-14T02:03:29.209Z,11.47
2019-02-14T02:05:59.976Z,11.60
2019-02-14T02:08:30.758Z,15.60
2019-02-14T02:11:01.651Z,17.20
2019-02-14T02:13:32.449Z,14.70
2019-02-14T02:16:03.219Z,15.90
2019-02-14T02:18:34.798Z,22.53
2019-02-14T02:21:05.556Z,11.48
2019-02-14T02:23:36.343Z,11.63
2019-02-14T02:26:07.118Z,13.90
2019-02-14T02:28:37.957Z,10.77
2019-02-14T02:31:08.757Z,12.70
2019-02-14T02:33:39.565Z,11.40
2019-02-14T02:36:10.374Z,14.43
2019-02-14T02:38:41.162Z,14.97
2019-02-14T02:41:11.931Z,12.27
2019-02-14T02:43:42.791Z,12.93
2019-02-14T02:46:13.631Z,14.40
2019-02-14T02:48:44.435Z,12.37
2019-02-14T02:51:15.541Z,15.67
2019-02-14T02:53:46.330Z,8.75
2019-02-14T02:56:17.184Z,13.53
2019-02-14T02:58:47.918Z,11.43
2019-02-14T03:01:18.747Z,13.63
2019-02-14T03:03:49.467Z,11.40
2019-02-14T03:06:20.279Z,15.97
2019-02-14T03:08:51.087Z,13.50
2019-02-14T03:11:21.870Z,10.83
2019-02-14T03:13:52.647Z,14.10
2019-02-14T03:16:23.438Z,14.73
2019-02-14T03:18:54.201Z,11.80
2019-02-14T03:21:24.979Z,13.23
2019-02-14T03:23:55.779Z,11.97
2019-02-14T03:26:26.590Z,13.50
2019-02-14T03:28:57.393Z,17.23
2019-02-14T03:31:28.152Z,12.30
2019-02-14T03:33:58.911Z,11.77
2019-02-14T03:36:29.679Z,11.20
2019-02-14T03:39:00.445Z,12.63
2019-02-14T03:41:31.287Z,14.73
2019-02-14T03:44:02.179Z,11.77
2019-02-14T03:46:33.060Z,14.03
2019-02-14T03:49:03.832Z,12.63
2019-02-14T03:51:34.610Z,14.30
2019-02-14T03:54:05.389Z,12.73
2019-02-14T03:56:36.159Z,13.70
2019-02-14T03:59:06.929Z,15.77
2019-02-14T04:01:38.020Z,14.33
2019-02-14T04:04:08.826Z,14.15
2019-02-14T04:06:39.639Z,14.57
2019-02-14T04:09:10.408Z,11.43
2019-02-14T04:11:41.177Z,9.60
2019-02-14T04:14:11.942Z,12.33
2019-02-14T04:16:42.715Z,11.80
2019-02-14T04:19:13.478Z,13.90
2019-02-14T04:21:44.245Z,14.47
2019-02-14T04:24:15.011Z,10.30
2019-02-14T04:26:45.804Z,8.93
2019-02-14T04:29:16.571Z,12.47
2019-02-14T04:31:47.357Z,14.53
2019-02-14T04:34:18.117Z,14.53
2019-02-14T04:36:48.892Z,13.50
2019-02-14T04:39:19.644Z,12.20
2019-02-14T04:41:50.414Z,11.87
2019-02-14T04:44:21.165Z,12.80
2019-02-14T04:46:51.963Z,16.03
2019-02-14T04:49:22.715Z,10.90
2019-02-14T04:51:53.501Z,13.60
2019-02-14T04:54:24.258Z,19.53
2019-02-14T04:56:55.034Z,15.57
2019-02-14T04:59:25.791Z,15.37
2019-02-14T05:01:56.566Z,13.33
2019-02-14T05:04:27.351Z,16.67
2019-02-14T05:06:58.127Z,13.97
2019-02-14T05:09:28.877Z,12.47
2019-02-14T05:11:59.647Z,9.77
2019-02-14T05:14:30.397Z,13.10
2019-02-14T05:17:01.170Z,19.73
2019-02-14T05:19:31.924Z,14.43
2019-02-14T05:22:02.687Z,17.83
2019-02-14T05:24:33.452Z,12.33
2019-02-14T05:27:04.221Z,14.50
2019-02-14T05:29:34.975Z,15.57
2019-02-14T05:32:05.751Z,11.87
2019-02-14T05:34:36.559Z,14.70
2019-02-14T05:37:07.292Z,12.87
2019-02-14T05:39:38.041Z,11.57
2019-02-14T05:42:08.810Z,14.30
2019-02-14T05:44:39.561Z,11.90
2019-02-14T05:47:10.341Z,12.33
2019-02-14T05:49:41.093Z,13.90
2019-02-14T05:52:11.867Z,15.20
2019-02-14T05:54:42.617Z,11.03
2019-02-14T05:57:13.383Z,10.93
2019-02-14T05:59:44.136Z,12.67
2019-02-14T06:02:16.801Z,17.50
2019-02-14T06:04:47.561Z,11.70
2019-02-14T06:07:18.321Z,15.63
2019-02-14T06:09:49.079Z,18.20
2019-02-14T06:12:19.850Z,15.53
2019-02-14T06:14:50.597Z,14.27
2019-02-14T06:17:21.383Z,15.67
2019-02-14T06:19:52.156Z,15.60
2019-02-14T06:22:22.935Z,14.03
2019-02-14T06:24:53.689Z,15.93
2019-02-14T06:27:24.467Z,12.90
2019-02-14T06:29:55.224Z,13.43
2019-02-14T06:32:26.004Z,16.63
2019-02-14T06:34:56.795Z,19.10
2019-02-14T06:37:27.566Z,35.27
2019-02-14T06:39:58.325Z,19.60
2019-02-14T06:42:29.092Z,21.80
2019-02-14T06:44:59.852Z,18.10
2019-02-14T06:47:30.627Z,21.37
2019-02-14T06:50:01.483Z,13.83
2019-02-14T06:52:32.246Z,15.50
2019-02-14T06:55:03.806Z,17.70
2019-02-14T06:57:34.569Z,16.40
2019-02-14T07:00:09.027Z,16.47
2019-02-14T07:02:39.789Z,15.13
2019-02-14T07:05:10.544Z,14.17
2019-02-14T07:07:41.351Z,15.43
2019-02-14T07:10:12.110Z,15.07
2019-02-14T07:12:42.882Z,12.57
2019-02-14T07:15:13.742Z,11.97
2019-02-14T07:17:44.781Z,17.60
2019-02-14T07:20:15.948Z,16.10
2019-02-14T07:22:46.714Z,16.70
2019-02-14T07:25:17.461Z,17.80
2019-02-14T07:27:48.229Z,16.73
2019-02-14T07:30:22.291Z,16.67
2019-02-14T07:32:53.060Z,15.35
2019-02-14T07:35:23.819Z,15.60
2019-02-14T07:37:54.597Z,15.13
2019-02-14T07:40:25.367Z,14.50
2019-02-14T07:42:56.149Z,17.83
2019-02-14T07:45:26.927Z,16.10
2019-02-14T07:47:57.699Z,17.50
2019-02-14T07:50:28.455Z,13.57
2019-02-14T07:52:59.223Z,16.33
2019-02-14T07:55:29.978Z,16.77
2019-02-14T07:58:00.743Z,20.87
2019-02-14T08:00:31.500Z,18.80
2019-02-14T08:03:02.364Z,18.00
2019-02-14T08:05:33.130Z,19.00
2019-02-14T08:08:03.908Z,18.97
2019-02-14T08:10:34.669Z,15.83
2019-02-14T08:13:05.434Z,16.00
2019-02-14T08:15:36.191Z,19.80
2019-02-14T08:18:06.961Z,18.53
2019-02-14T08:20:37.714Z,17.03
2019-02-14T08:23:08.479Z,18.33
2019-02-14T08:25:39.240Z,16.60
2019-02-14T08:28:10.005Z,19.00
2019-02-14T08:30:40.759Z,18.53
2019-02-14T08:33:11.573Z,18.83
2019-02-14T08:35:42.332Z,14.17
2019-02-14T08:38:13.101Z,12.83
2019-02-14T08:40:43.871Z,18.80
2019-02-14T08:43:14.643Z,13.90
2019-02-14T08:45:45.405Z,17.17
2019-02-14T08:48:16.172Z,14.43
2019-02-14T08:50:46.930Z,16.47
2019-02-14T08:53:17.696Z,13.80
2019-02-14T08:55:48.455Z,14.73
2019-02-14T08:58:19.221Z,16.50
2019-02-14T09:00:49.983Z,23.63
2019-02-14T09:03:20.745Z,15.63
2019-02-14T09:05:51.503Z,13.63
2019-02-14T09:08:22.278Z,15.30
2019-02-14T09:10:53.038Z,15.10
2019-02-14T09:13:23.806Z,11.47
2019-02-14T09:15:54.563Z,15.30
2019-02-14T09:18:25.438Z,14.07
2019-02-14T09:20:56.190Z,16.67
2019-02-14T09:23:26.951Z,14.07
2019-02-14T09:25:57.710Z,16.60
2019-02-14T09:28:28.507Z,13.73
2019-02-14T09:30:59.259Z,14.30
2019-02-14T09:33:30.030Z,14.10
2019-02-14T09:36:00.816Z,16.20
2019-02-14T09:38:31.580Z,15.30
2019-02-14T09:41:02.387Z,14.73
2019-02-14T09:43:33.183Z,16.90
2019-02-14T09:46:03.965Z,14.30
2019-02-14T09:48:34.742Z,14.17
2019-02-14T09:51:05.494Z,16.77
2019-02-14T09:53:36.286Z,15.53
2019-02-14T09:56:07.041Z,15.17
2019-02-14T09:58:37.816Z,15.40
2019-02-14T10:01:08.573Z,15.60
2019-02-14T10:03:39.358Z,13.43
2019-02-14T10:06:10.120Z,18.63
2019-02-14T10:08:40.886Z,13.57
2019-02-14T10:11:11.647Z,16.30
2019-02-14T10:13:42.418Z,16.30
2019-02-14T10:16:13.175Z,19.90
2019-02-14T10:18:43.953Z,14.47
2019-02-14T10:21:14.713Z,22.47
2019-02-14T10:23:45.495Z,19.63
2019-02-14T10:26:16.268Z,18.53
2019-02-14T10:28:47.032Z,16.80
2019-02-14T10:31:17.821Z,19.17
2019-02-14T10:33:48.595Z,15.77
2019-02-14T10:36:19.357Z,14.57
2019-02-14T10:38:50.119Z,16.90
2019-02-14T10:41:20.912Z,14.57
2019-02-14T10:43:53.024Z,16.93
2019-02-14T10:46:23.825Z,17.32
2019-02-14T10:48:54.618Z,17.30
2019-02-14T10:51:25.373Z,18.70
2019-02-14T10:53:56.158Z,18.40
2019-02-14T10:56:26.937Z,19.30
2019-02-14T10:58:59.146Z,19.13
2019-02-14T11:01:30.029Z,17.25
2019-02-14T11:04:00.783Z,16.70
2019-02-14T11:06:31.536Z,20.07
2019-02-14T11:09:04.308Z,15.83
2019-02-14T11:11:35.082Z,15.83
2019-02-14T11:14:05.853Z,26.53
2019-02-14T11:16:36.637Z,16.40
2019-02-14T11:19:07.404Z,17.20
2019-02-14T11:21:38.167Z,14.37
2019-02-14T11:24:08.932Z,14.47
2019-02-14T11:26:39.699Z,14.77
2019-02-14T11:29:10.480Z,16.93
2019-02-14T11:31:41.252Z,15.80
2019-02-14T11:34:12.022Z,11.47
2019-02-14T11:36:42.773Z,11.40
2019-02-14T11:39:13.537Z,14.77
2019-02-14T11:41:44.298Z,12.80
2019-02-14T11:44:15.066Z,16.00
2019-02-14T11:46:51.552Z,12.90
2019-02-14T11:49:18.527Z,16.65
2019-02-14T11:51:49.286Z,12.37
2019-02-14T11:54:20.052Z,9.57
2019-02-14T11:56:53.971Z,13.23
2019-02-14T11:59:24.740Z,16.12
2019-02-14T12:01:55.731Z,15.47
2019-02-14T12:04:28.520Z,12.40
2019-02-14T12:06:59.286Z,16.42
2019-02-14T12:09:30.057Z,18.00
2019-02-14T12:12:00.822Z,20.00
2019-02-14T12:14:31.594Z,16.67
2019-02-14T12:17:02.347Z,15.90
2019-02-14T12:19:33.113Z,15.63
2019-02-14T12:22:03.881Z,15.60
2019-02-14T12:24:34.995Z,15.37
2019-02-14T12:27:05.861Z,19.52
2019-02-14T12:29:36.628Z,15.50
2019-02-14T12:32:07.438Z,13.67
2019-02-14T12:34:38.267Z,13.07
2019-02-14T12:37:09.039Z,13.03
2019-02-14T12:39:39.813Z,15.27
2019-02-14T12:42:10.572Z,11.83
2019-02-14T12:44:41.366Z,15.80
2019-02-14T12:47:12.162Z,13.07
2019-02-14T12:49:42.980Z,14.10
2019-02-14T12:52:13.747Z,11.10
2019-02-14T12:54:44.523Z,13.43
2019-02-14T12:57:15.282Z,15.57
2019-02-14T12:59:46.051Z,15.73
2019-02-14T13:02:16.844Z,15.43
2019-02-14T13:04:47.631Z,13.63
2019-02-14T13:07:20.350Z,16.80
2019-02-14T13:09:51.073Z,15.45
2019-02-14T13:12:22.031Z,15.63
2019-02-14T13:14:53.033Z,12.40
2019-02-14T13:17:23.787Z,11.67
2019-02-14T13:19:54.544Z,13.50
2019-02-14T13:22:25.313Z,13.03
2019-02-14T13:24:56.110Z,17.37
2019-02-14T13:27:26.871Z,16.63
2019-02-14T13:29:57.633Z,15.73
2019-02-14T13:32:28.451Z,20.00
2019-02-14T13:34:59.227Z,15.43
2019-02-14T13:37:30.001Z,15.30
2019-02-14T13:40:00.759Z,14.70
2019-02-14T13:42:31.553Z,14.23
2019-02-14T13:45:04.623Z,13.43
2019-02-14T13:47:35.423Z,13.98
2019-02-14T13:50:08.897Z,15.20
2019-02-14T13:52:39.684Z,13.48
2019-02-14T13:55:10.430Z,14.63
2019-02-14T13:57:41.208Z,14.10
2019-02-14T14:00:23.330Z,14.10
2019-02-14T14:02:54.157Z,12.88
2019-02-14T14:05:24.860Z,14.50
2019-02-14T14:07:55.639Z,14.67
2019-02-14T14:10:26.387Z,14.57
2019-02-14T14:12:57.157Z,14.23
2019-02-14T14:15:27.940Z,15.70
2019-02-14T14:17:58.709Z,14.70
2019-02-14T14:20:29.478Z,15.10
2019-02-14T14:23:00.253Z,12.50
2019-02-14T14:25:31.018Z,12.90
2019-02-14T14:28:01.813Z,13.03
2019-02-14T14:30:32.585Z,17.30
2019-02-14T14:33:03.350Z,14.30
2019-02-14T14:35:34.110Z,11.07
2019-02-14T14:38:04.887Z,10.93
2019-02-14T14:40:35.648Z,13.90
2019-02-14T14:43:17.359Z,13.27
2019-02-14T14:45:50.041Z,10.98
2019-02-14T14:48:21.511Z,12.67
2019-02-14T14:50:52.289Z,14.18
2019-02-14T14:53:23.051Z,12.40
2019-02-14T14:55:53.812Z,11.00
2019-02-14T14:58:24.580Z,14.47
2019-02-14T15:00:55.359Z,15.27
2019-02-14T15:03:26.131Z,14.93
2019-02-14T15:05:56.896Z,13.50
2019-02-14T15:08:27.688Z,16.17
2019-02-14T15:10:58.450Z,14.67
2019-02-14T15:13:29.217Z,11.03
2019-02-14T15:15:59.973Z,12.40
2019-02-14T15:18:30.734Z,11.80
2019-02-14T15:21:01.498Z,13.33
2019-02-14T15:23:32.274Z,10.47
2019-02-14T15:26:03.058Z,14.50
2019-02-14T15:28:33.815Z,10.83
2019-02-14T15:31:04.581Z,14.63
2019-02-14T15:33:35.347Z,9.73
2019-02-14T15:36:06.103Z,12.00
2019-02-14T15:38:37.176Z,14.10
2019-02-14T15:41:07.982Z,11.78
2019-02-14T15:43:38.748Z,12.07
2019-02-14T15:46:09.515Z,11.70
2019-02-14T15:48:40.302Z,12.00
2019-02-14T15:51:11.073Z,11.73
2019-02-14T15:53:43.829Z,12.10
2019-02-14T15:56:14.873Z,12.88
2019-02-14T15:58:45.657Z,12.25
2019-02-14T16:01:17.094Z,14.00
2019-02-14T16:03:49.121Z,14.18
2019-02-14T16:06:19.866Z,13.20
2019-02-14T16:08:50.632Z,15.13
2019-02-14T16:11:21.391Z,14.37
2019-02-14T16:13:52.925Z,16.00
2019-02-14T16:16:24.833Z,16.77
2019-02-14T16:18:55.593Z,12.60
2019-02-14T16:21:27.780Z,15.97
2019-02-14T16:23:59.034Z,14.47
2019-02-14T16:26:29.789Z,17.60
2019-02-14T16:29:02.117Z,14.05
2019-02-14T16:31:34.031Z,15.80
2019-02-14T16:34:04.811Z,17.97
2019-02-14T16:36:35.560Z,14.90
2019-02-14T16:39:06.454Z,15.67
2019-02-14T16:41:37.195Z,16.63
2019-02-14T16:44:07.973Z,12.40
2019-02-14T16:46:38.744Z,15.03
2019-02-14T16:49:09.506Z,15.77
2019-02-14T16:51:40.263Z,20.67
2019-02-14T16:54:11.034Z,22.10
2019-02-14T16:56:41.829Z,17.17
2019-02-14T16:59:12.587Z,18.07
2019-02-14T17:01:43.353Z,23.00
2019-02-14T17:04:14.102Z,17.53
2019-02-14T17:06:44.864Z,22.73
2019-02-14T17:09:15.636Z,21.27
2019-02-14T17:11:46.393Z,20.60
2019-02-14T17:14:17.162Z,21.87
2019-02-14T17:16:47.931Z,14.80
2019-02-14T17:19:18.704Z,19.30
2019-02-14T17:21:49.462Z,19.40
2019-02-14T17:24:20.234Z,17.83
2019-02-14T17:26:50.991Z,20.37
2019-02-14T17:29:21.763Z,19.83
2019-02-14T17:31:52.517Z,18.47
2019-02-14T17:34:23.309Z,20.50
2019-02-14T17:36:54.059Z,22.77
2019-02-14T17:39:24.835Z,16.83
2019-02-14T17:41:55.608Z,19.73
2019-02-14T17:44:26.379Z,22.57
2019-02-14T17:46:57.151Z,19.10
2019-02-14T17:49:27.915Z,18.07
2019-02-14T17:51:58.675Z,20.57
2019-02-14T17:54:29.449Z,35.30
2019-02-14T17:57:00.213Z,29.23
2019-02-14T17:59:30.980Z,20.13
2019-02-14T18:02:01.745Z,26.73
2019-02-14T18:04:32.517Z,24.93
2019-02-14T18:07:03.285Z,25.90
2019-02-14T18:09:34.066Z,24.30
2019-02-14T18:12:04.832Z,18.80
2019-02-14T18:14:35.599Z,24.43
2019-02-14T18:17:06.366Z,26.77
2019-02-14T18:19:37.127Z,18.47
2019-02-14T18:22:07.881Z,24.50
2019-02-14T18:24:38.639Z,20.70
2019-02-14T18:27:09.427Z,19.80
2019-02-14T18:29:40.212Z,19.70
2019-02-14T18:32:10.976Z,25.23
2019-02-14T18:34:43.521Z,21.10
2019-02-14T18:37:14.282Z,20.77
2019-02-14T18:39:45.053Z,23.37
2019-02-14T18:42:15.860Z,20.77
2019-02-14T18:44:47.429Z,21.27
2019-02-14T18:47:18.268Z,24.00
2019-02-14T18:49:49.047Z,23.60
2019-02-14T18:52:19.804Z,21.90
2019-02-14T18:54:50.591Z,23.30
2019-02-14T18:57:21.357Z,22.77
2019-02-14T18:59:52.118Z,20.57
2019-02-14T19:02:22.902Z,21.90
2019-02-14T19:04:53.715Z,20.57
2019-02-14T19:07:24.460Z,20.93
2019-02-14T19:09:55.223Z,18.27
2019-02-14T19:12:25.997Z,25.20
2019-02-14T19:14:56.753Z,25.10
2019-02-14T19:17:27.543Z,20.67
2019-02-14T19:19:58.349Z,20.37
2019-02-14T19:22:29.117Z,22.40
2019-02-14T19:25:00.294Z,29.97
2019-02-14T19:27:31.291Z,21.33
2019-02-14T19:30:03.471Z,25.30
2019-02-14T19:32:34.221Z,26.37
2019-02-14T19:35:07.082Z,24.30
2019-02-14T19:37:37.847Z,23.55
2019-02-14T19:40:08.605Z,23.37
2019-02-14T19:42:39.374Z,27.10
2019-02-14T19:45:10.430Z,21.60
2019-02-14T19:47:41.230Z,28.30
2019-02-14T19:50:12.601Z,21.17
2019-02-14T19:52:43.375Z,21.90
2019-02-14T19:55:14.130Z,25.40
2019-02-14T19:57:44.911Z,24.97
2019-02-14T20:00:15.670Z,28.10
2019-02-14T20:02:46.431Z,23.23
2019-02-14T20:05:17.192Z,26.30
2019-02-14T20:07:47.974Z,23.20
2019-02-14T20:10:18.910Z,24.27
2019-02-14T20:12:49.676Z,21.57
2019-02-14T20:15:20.635Z,28.47
2019-02-14T20:17:51.419Z,19.40
2019-02-14T20:20:22.181Z,24.10
2019-02-14T20:22:52.954Z,24.23
2019-02-14T20:25:25.611Z,18.73
2019-02-14T20:27:56.385Z,24.87
2019-02-14T20:30:27.141Z,24.33
2019-02-14T20:33:04.426Z,20.57
2019-02-14T20:35:30.588Z,20.72
2019-02-14T20:38:01.359Z,26.87
2019-02-14T20:40:32.224Z,26.70
2019-02-14T20:43:02.988Z,23.90
2019-02-14T20:45:33.770Z,22.23
2019-02-14T20:48:04.640Z,23.70
2019-02-14T20:50:35.406Z,19.90
2019-02-14T20:53:06.176Z,20.13
2019-02-14T20:55:36.942Z,21.20
2019-02-14T20:58:07.712Z,20.60
2019-02-14T21:00:38.519Z,22.90
2019-02-14T21:03:09.234Z,22.20
2019-02-14T21:05:39.993Z,23.50
2019-02-14T21:08:10.761Z,23.60
2019-02-14T21:10:41.670Z,17.90
2019-02-14T21:13:12.433Z,21.47
2019-02-14T21:15:43.191Z,19.23
2019-02-14T21:18:13.955Z,19.67
2019-02-14T21:20:44.712Z,21.27
2019-02-14T21:23:15.477Z,24.60
2019-02-14T21:25:46.255Z,26.00
2019-02-14T21:28:17.024Z,20.30
2019-02-14T21:30:47.811Z,21.57
2019-02-14T21:33:18.619Z,19.63
2019-02-14T21:35:49.447Z,21.37
2019-02-14T21:38:20.200Z,23.57
2019-02-14T21:40:50.981Z,21.10
2019-02-14T21:43:21.746Z,26.13
2019-02-14T21:45:52.615Z,20.07
2019-02-14T21:48:23.410Z,24.90
2019-02-14T21:50:54.157Z,24.00
2019-02-14T21:53:24.930Z,20.40
2019-02-14T21:55:55.961Z,19.53
2019-02-14T21:58:46.686Z,19.67
2019-02-14T22:01:19.554Z,19.95
2019-02-14T22:03:51.342Z,18.10
2019-02-14T22:06:22.123Z,20.05
2019-02-14T22:08:52.921Z,25.83
2019-02-14T22:11:34.771Z,18.20
2019-02-14T22:14:05.859Z,18.07
2019-02-14T22:16:36.704Z,18.00
2019-02-14T22:19:07.481Z,17.87
2019-02-14T22:21:38.263Z,20.90
2019-02-14T22:24:09.057Z,18.53
2019-02-14T22:26:39.862Z,20.27
2019-02-14T22:29:10.652Z,21.53
2019-02-14T22:31:41.423Z,16.00
2019-02-14T22:34:12.225Z,18.60
2019-02-14T22:36:42.982Z,19.33
2019-02-14T22:39:13.786Z,18.53
2019-02-14T22:41:44.702Z,17.83
2019-02-14T22:44:15.466Z,18.23
2019-02-14T22:46:46.239Z,16.70
2019-02-14T22:49:17.010Z,22.10
2019-02-14T22:51:54.821Z,20.07
2019-02-14T22:54:25.593Z,18.05
2019-02-14T22:56:56.352Z,20.83
2019-02-14T22:59:27.124Z,18.93
2019-02-14T23:01:58.099Z,21.80
2019-02-14T23:04:33.847Z,21.55
2019-02-14T23:07:15.586Z,21.77
2019-02-14T23:09:46.348Z,20.02
2019-02-14T23:12:20.415Z,19.77
2019-02-14T23:14:51.181Z,19.77
2019-02-14T23:17:21.936Z,24.33
2019-02-14T23:19:59.336Z,20.93
2019-02-14T23:22:30.131Z,18.50
2019-02-14T23:25:00.917Z,20.00
2019-02-14T23:27:35.797Z,18.07
2019-02-14T23:30:09.791Z,19.75
2019-02-14T23:32:40.556Z,18.17
2019-02-14T23:35:11.625Z,18.10
2019-02-14T23:37:42.383Z,17.98
2019-02-14T23:40:13.162Z,15.77
2019-02-14T23:42:44.032Z,18.30
2019-02-14T23:45:14.799Z,15.77
2019-02-14T23:47:46.592Z,14.40
2019-02-14T23:50:17.422Z,14.68
2019-02-14T23:52:48.180Z,14.80
2019-02-14T23:55:32.096Z,16.70
2019-02-14T23:58:02.865Z,17.45
